Time;durP1;ratioP1;P1;durP2;ratioP2;P2;SDS_P1;SDS_P2;PMS_P1;PMS_P2;Temp;Humidity;BMP_temperature;BMP_pressure;BME280_temperature;BME280_humidity;BME280_pressure;Samples;Min_cycle;Max_cycle;Signal;HPM_P1;HPM_P2
2021/08/23 00:01:51;;;;;;;5.97;1.85;;;;;;;17.31;95.08;102224.56;5063204;28;20057;-33
2021/08/23 00:04:19;;;;;;;4.93;2.20;;;;;;;17.32;95.19;102219.75;5059866;28;20094;-39
2021/08/23 00:06:47;;;;;;;4.68;2.00;;;;;;;17.33;94.45;102219.44;5056009;28;20118;-33
2021/08/23 00:09:15;;;;;;;7.70;2.20;;;;;;;17.32;93.60;102229.06;5063697;28;20096;-37
2021/08/23 00:11:43;;;;;;;5.90;1.77;;;;;;;17.31;93.20;102227.38;5061306;28;20497;-38
2021/08/23 00:14:10;;;;;;;5.85;1.80;;;;;;;17.32;92.99;102223.41;5056565;28;20051;-38
2021/08/23 00:16:38;;;;;;;5.30;1.67;;;;;;;17.32;92.61;102226.22;5061942;28;20049;-39
2021/08/23 00:19:07;;;;;;;5.68;1.77;;;;;;;17.34;92.25;102228.75;5064013;28;20044;-35
2021/08/23 00:21:42;;;;;;;4.10;1.70;;;;;;;17.33;91.77;102236.38;5052613;28;20469;-39
2021/08/23 00:24:21;;;;;;;4.47;1.70;;;;;;;17.34;91.46;102228.75;5063886;28;20486;-35
2021/08/23 00:26:50;;;;;;;3.33;1.45;;;;;;;17.33;91.50;102225.09;5054385;28;20044;-38
2021/08/23 00:29:17;;;;;;;4.93;1.83;;;;;;;17.34;91.06;102226.75;5064110;28;20045;-31
2021/08/23 00:31:46;;;;;;;4.95;1.85;;;;;;;17.34;91.00;102232.41;5056133;28;20048;-37
2021/08/23 00:34:15;;;;;;;5.88;2.15;;;;;;;17.35;90.95;102234.09;5059340;28;20084;-39
2021/08/23 00:36:43;;;;;;;6.53;1.70;;;;;;;17.35;91.19;102233.25;5055247;28;20507;-35
2021/08/23 00:39:12;;;;;;;6.22;1.88;;;;;;;17.36;91.68;102238.59;5060716;28;20079;-33
2021/08/23 00:41:42;;;;;;;6.88;2.03;;;;;;;17.37;91.97;102242.25;5057051;28;20045;-32
2021/08/23 00:44:10;;;;;;;8.80;2.45;;;;;;;17.38;92.44;102238.28;5052426;28;20041;-33
2021/08/23 00:46:41;;;;;;;7.30;2.00;;;;;;;17.39;92.99;102248.38;5066369;28;20091;-36
2021/08/23 00:49:09;;;;;;;6.10;2.05;;;;;;;17.38;93.49;102250.41;5064576;28;20045;-32
2021/08/23 00:51:38;;;;;;;6.82;2.05;;;;;;;17.39;93.61;102252.03;5059159;28;20072;-34
2021/08/23 00:54:07;;;;;;;7.50;2.13;;;;;;;17.41;93.62;102257.38;5062872;28;20041;-31
2021/08/23 00:56:35;;;;;;;6.90;2.05;;;;;;;17.40;93.76;102250.06;5060090;28;20051;-35
2021/08/23 00:59:08;;;;;;;8.38;2.58;;;;;;;17.40;93.99;102245.25;5062432;28;20052;-37
2021/08/23 01:01:48;;;;;;;5.95;2.10;;;;;;;17.40;94.03;102248.06;5061631;28;20056;-32
2021/08/23 01:04:23;;;;;;;6.43;1.90;;;;;;;17.41;93.92;102257.38;5063050;28;20481;-33
2021/08/23 01:06:54;;;;;;;6.07;2.20;;;;;;;17.39;94.06;102259.66;5060773;28;20106;-34
2021/08/23 01:09:25;;;;;;;7.18;1.98;;;;;;;17.37;93.97;102262.81;5060933;28;20414;-35
2021/08/23 01:11:56;;;;;;;6.17;1.90;;;;;;;17.36;94.03;102261.16;5061773;28;20087;-32
2021/08/23 01:14:24;;;;;;;5.13;1.80;;;;;;;17.34;94.09;102265.44;5061115;28;20056;-33
2021/08/23 01:16:52;;;;;;;5.05;2.10;;;;;;;17.34;94.13;102269.09;5062725;28;20120;-35
2021/08/23 01:19:23;;;;;;;4.65;1.80;;;;;;;17.36;94.20;102265.97;5058875;28;20465;-34
2021/08/23 01:21:54;;;;;;;4.90;2.28;;;;;;;17.33;94.47;102267.41;5064668;28;20064;-31
2021/08/23 01:24:23;;;;;;;7.45;2.33;;;;;;;17.31;94.70;102266.88;5057101;28;20075;-38
2021/08/23 01:26:53;;;;;;;8.10;2.25;;;;;;;17.29;94.90;102272.00;5065722;28;20053;-32
2021/08/23 01:29:29;;;;;;;4.85;1.60;;;;;;;17.29;95.09;102266.34;5057508;28;20048;-34
2021/08/23 01:32:15;;;;;;;6.63;2.10;;;;;;;17.29;95.42;102272.00;5047772;28;20053;-32
2021/08/23 01:34:44;;;;;;;7.13;2.08;;;;;;;17.25;95.69;102278.56;5057540;28;20468;-37
2021/08/23 01:37:14;;;;;;;5.47;2.40;;;;;;;17.23;96.00;102278.88;5064889;28;20045;-36
2021/08/23 01:39:43;;;;;;;7.35;2.25;;;;;;;17.21;96.29;102284.81;5057399;28;20516;-33
2021/08/23 01:42:11;;;;;;;5.20;1.90;;;;;;;17.19;96.40;102284.28;5066581;28;20055;-35
2021/08/23 01:44:39;;;;;;;5.97;2.22;;;;;;;17.17;96.82;102291.41;5053590;28;20474;-33
2021/08/23 01:47:07;;;;;;;4.35;1.80;;;;;;;17.12;96.95;102291.50;5069070;28;20472;-41
2021/08/23 01:49:37;;;;;;;7.78;2.15;;;;;;;17.10;97.49;102302.25;5056919;28;20053;-38
2021/08/23 01:52:06;;;;;;;5.30;1.90;;;;;;;17.06;97.64;102295.53;5065757;28;20048;-35
2021/08/23 01:54:34;;;;;;;5.65;2.13;;;;;;;17.04;97.69;102295.84;5056997;28;20048;-31
2021/08/23 01:57:02;;;;;;;5.50;1.80;;;;;;;17.01;98.04;102289.97;5064306;28;20178;-34
2021/08/23 01:59:30;;;;;;;7.85;1.90;;;;;;;16.99;98.29;102297.91;5056744;28;20049;-32
2021/08/23 02:01:58;;;;;;;5.97;2.10;;;;;;;16.96;98.48;102298.53;5062024;28;20064;-39
2021/08/23 02:04:26;;;;;;;7.38;2.10;;;;;;;16.94;98.76;102300.84;5067548;28;20094;-38
2021/08/23 02:06:55;;;;;;;5.78;2.13;;;;;;;16.92;99.08;102306.78;5061879;28;20053;-35
2021/08/23 02:09:22;;;;;;;6.72;2.03;;;;;;;16.91;99.16;102307.09;5056694;28;20456;-35
2021/08/23 02:11:50;;;;;;;7.28;2.40;;;;;;;16.89;99.60;102313.03;5063505;28;20460;-38
2021/08/23 02:14:18;;;;;;;4.40;2.25;;;;;;;16.86;99.92;102308.84;5065009;28;20464;-32
2021/08/23 02:16:46;;;;;;;5.50;2.10;;;;;;;16.85;100.00;102311.97;5061100;28;20049;-33
2021/08/23 02:19:14;;;;;;;6.28;2.13;;;;;;;16.83;100.00;102317.91;5059097;28;20049;-37
2021/08/23 02:21:46;;;;;;;5.93;2.33;;;;;;;16.81;100.00;102317.38;5059921;28;20055;-36
2021/08/23 02:24:16;;;;;;;5.75;2.17;;;;;;;16.79;100.00;102316.81;5060819;28;20049;-32
2021/08/23 02:26:44;;;;;;;5.28;2.30;;;;;;;16.77;100.00;102316.31;5063853;28;21378;-31
2021/08/23 02:29:12;;;;;;;6.72;2.30;;;;;;;16.76;100.00;102319.44;5061496;28;20497;-34
2021/08/23 02:31:40;;;;;;;5.28;1.77;;;;;;;16.74;100.00;102325.38;5059437;28;20132;-42
2021/08/23 02:34:07;;;;;;;5.80;2.00;;;;;;;16.73;100.00;102334.16;5063799;28;20121;-34
2021/08/23 02:36:36;;;;;;;6.03;2.40;;;;;;;16.72;100.00;102335.28;5063317;28;20060;-32
2021/08/23 02:39:05;;;;;;;9.48;2.90;;;;;;;16.70;100.00;102343.22;5058320;28;20045;-35
2021/08/23 02:41:34;;;;;;;4.22;2.30;;;;;;;16.69;100.00;102336.72;5061640;28;20079;-33
2021/08/23 02:44:03;;;;;;;5.18;2.20;;;;;;;16.65;100.00;102338.47;5061997;28;20037;-34
2021/08/23 02:46:31;;;;;;;5.00;2.55;;;;;;;16.65;100.00;102357.38;5059571;28;20057;-38
2021/08/23 02:48:59;;;;;;;4.93;2.05;;;;;;;16.63;100.00;102348.34;5057597;28;20097;-37
2021/08/23 02:51:27;;;;;;;5.82;2.35;;;;;;;16.62;100.00;102341.88;5067466;28;20055;-35
2021/08/23 02:53:54;;;;;;;8.48;2.90;;;;;;;16.62;100.00;102358.78;5059374;28;20048;-32
2021/08/23 02:56:22;;;;;;;6.13;2.45;;;;;;;16.61;100.00;102345.00;5066013;28;20517;-36
2021/08/23 02:58:51;;;;;;;3.58;1.90;;;;;;;16.59;100.00;102356.56;5061810;28;20447;-32
2021/08/23 03:01:19;;;;;;;5.45;2.90;;;;;;;16.57;100.00;102356.06;5055994;28;20045;-33
2021/08/23 03:03:47;;;;;;;7.55;2.60;;;;;;;16.57;100.00;102361.69;5061418;28;20091;-36
2021/08/23 03:06:15;;;;;;;5.95;2.42;;;;;;;16.56;100.00;102362.00;5056220;28;20408;-33
2021/08/23 03:08:43;;;;;;;9.77;3.53;;;;;;;16.55;100.00;102369.59;5061953;28;20099;-31
2021/08/23 03:11:13;;;;;;;4.70;2.17;;;;;;;16.53;100.00;102375.53;5064076;28;20570;-36
2021/08/23 03:13:42;;;;;;;6.43;2.50;;;;;;;16.52;100.00;102364.56;5060327;28;20067;-39
2021/08/23 03:16:12;;;;;;;6.68;3.08;;;;;;;16.49;100.00;102368.84;5057574;28;20458;-33
2021/08/23 03:18:41;;;;;;;5.38;2.60;;;;;;;16.48;100.00;102369.97;5059651;28;20079;-31
2021/08/23 03:21:09;;;;;;;5.47;2.90;;;;;;;16.48;100.00;102380.41;5059517;28;20136;-31
2021/08/23 03:23:37;;;;;;;8.57;2.70;;;;;;;16.47;100.00;102375.91;5063375;28;20084;-32
2021/08/23 03:26:05;;;;;;;7.78;3.08;;;;;;;16.45;100.00;102376.22;5060822;28;20040;-33
2021/08/23 03:28:34;;;;;;;10.45;3.60;;;;;;;16.44;100.00;102382.97;5058478;28;20490;-40
2021/08/23 03:31:02;;;;;;;5.47;2.65;;;;;;;16.42;100.00;102382.44;5062712;28;20076;-33
2021/08/23 03:33:32;;;;;;;6.32;3.00;;;;;;;16.42;100.00;102384.41;5060875;28;20045;-34
2021/08/23 03:36:01;;;;;;;6.72;3.00;;;;;;;16.39;100.00;102377.41;5057247;28;20049;-35
2021/08/23 03:38:29;;;;;;;6.97;2.58;;;;;;;16.38;100.00;102392.66;5060702;28;20077;-36
2021/08/23 03:40:56;;;;;;;6.20;2.72;;;;;;;16.38;100.00;102395.47;5064498;28;20045;-39
2021/08/23 03:43:25;;;;;;;4.75;2.28;;;;;;;16.37;100.00;102393.81;5058692;28;20489;-36
2021/08/23 03:45:52;;;;;;;6.55;3.10;;;;;;;16.35;100.00;102396.06;5038718;28;20048;-39
2021/08/23 03:48:21;;;;;;;7.78;2.50;;;;;;;16.33;100.00;102394.69;5064920;28;20509;-36
2021/08/23 03:50:50;;;;;;;6.05;3.10;;;;;;;16.33;100.00;102394.69;5062689;28;20413;-34
2021/08/23 03:53:18;;;;;;;7.75;2.90;;;;;;;16.31;100.00;102402.59;5055463;28;20044;-35
2021/08/23 03:55:45;;;;;;;7.30;2.75;;;;;;;16.30;100.00;102393.31;5060363;28;20055;-36
2021/08/23 03:58:13;;;;;;;6.47;2.92;;;;;;;16.30;100.00;102400.94;5065377;28;20700;-33
2021/08/23 04:00:41;;;;;;;4.95;2.35;;;;;;;16.27;100.00;102399.53;5060415;28;20056;-33
2021/08/23 04:03:10;;;;;;;6.47;2.55;;;;;;;16.27;100.00;102401.53;5054909;28;20056;-38
2021/08/23 04:05:37;;;;;;;10.52;3.33;;;;;;;16.25;100.00;102404.63;5061292;28;20061;-38
2021/08/23 04:08:07;;;;;;;9.05;2.95;;;;;;;16.25;100.00;102409.44;5063929;28;20049;-32
2021/08/23 04:10:35;;;;;;;6.32;3.00;;;;;;;16.22;100.00;102418.47;5059613;28;20060;-32
2021/08/23 04:13:03;;;;;;;5.47;2.40;;;;;;;16.22;100.00;102416.50;5056396;28;20045;-33
2021/08/23 04:15:30;;;;;;;5.68;2.47;;;;;;;16.20;100.00;102413.13;5057309;28;20044;-38
2021/08/23 04:17:59;;;;;;;6.97;2.85;;;;;;;16.19;100.00;102422.72;5059502;28;20056;-33
2021/08/23 04:20:27;;;;;;;6.65;2.50;;;;;;;16.18;100.00;102419.09;5063239;28;20048;-35
2021/08/23 04:22:55;;;;;;;8.27;2.63;;;;;;;16.17;100.00;102425.88;5063574;28;20044;-34
2021/08/23 04:25:24;;;;;;;11.07;3.35;;;;;;;16.17;100.00;102425.88;5061582;28;20814;-32
2021/08/23 04:27:52;;;;;;;8.20;2.88;;;;;;;16.15;100.00;102428.16;5066309;28;20128;-41
2021/08/23 04:30:21;;;;;;;5.43;2.45;;;;;;;16.15;100.00;102438.56;5065710;28;20467;-34
2021/08/23 04:32:49;;;;;;;7.10;3.25;;;;;;;16.14;100.00;102432.09;5060291;28;20576;-33
2021/08/23 04:35:16;;;;;;;8.65;2.85;;;;;;;16.14;100.00;102437.72;5064796;28;20053;-37
2021/08/23 04:37:44;;;;;;;8.55;3.10;;;;;;;16.14;100.00;102453.78;5066656;28;20064;-32
2021/08/23 04:40:13;;;;;;;7.07;2.28;;;;;;;16.14;100.00;102449.00;5057481;28;20877;-33
2021/08/23 04:42:42;;;;;;;8.15;2.95;;;;;;;16.14;100.00;102454.63;5058670;28;20040;-34
2021/08/23 04:45:10;;;;;;;7.53;3.00;;;;;;;16.13;100.00;102458.59;5062880;28;20044;-34
2021/08/23 04:47:38;;;;;;;5.88;2.42;;;;;;;16.12;100.00;102462.53;5060975;28;20064;-33
2021/08/23 04:50:06;;;;;;;6.00;2.05;;;;;;;16.15;100.00;102461.09;5068565;28;20044;-37
2021/08/23 04:52:41;;;;;;;7.65;2.47;;;;;;;16.15;100.00;102464.75;5063230;28;20076;-36
2021/08/23 04:55:10;;;;;;;7.90;2.45;;;;;;;16.13;100.00;102466.19;5056899;28;20110;-35
2021/08/23 04:57:37;;;;;;;6.07;2.72;;;;;;;16.13;100.00;102467.03;5063374;28;20131;-33
2021/08/23 05:00:10;;;;;;;9.50;3.13;;;;;;;16.13;100.00;102469.84;5067697;28;20505;-32
2021/08/23 05:02:38;;;;;;;9.52;3.33;;;;;;;16.13;100.00;102475.47;5050520;28;20516;-37
2021/08/23 05:05:07;;;;;;;9.38;2.65;;;;;;;16.13;100.00;102472.66;5058099;28;20048;-39
2021/08/23 05:07:35;;;;;;;6.63;2.63;;;;;;;16.13;100.00;102483.94;5064348;28;20155;-33
2021/08/23 05:10:03;;;;;;;5.88;2.70;;;;;;;16.13;100.00;102478.28;5065261;28;20041;-39
2021/08/23 05:12:31;;;;;;;7.50;3.10;;;;;;;16.15;100.00;102483.63;5066429;28;20188;-32
2021/08/23 05:14:58;;;;;;;7.88;2.78;;;;;;;16.17;100.00;102484.19;5064481;28;20505;-43
2021/08/23 05:17:27;;;;;;;5.65;3.10;;;;;;;16.17;100.00;102482.19;5059659;28;20128;-34
2021/08/23 05:19:55;;;;;;;6.60;2.65;;;;;;;16.17;100.00;102485.03;5062722;28;20049;-36
2021/08/23 05:22:24;;;;;;;5.65;2.28;;;;;;;16.20;100.00;102492.84;5064516;28;20090;-42
2021/08/23 05:24:53;;;;;;;5.93;2.40;;;;;;;16.21;100.00;102496.50;5060562;28;20040;-39
2021/08/23 05:27:21;;;;;;;7.93;2.90;;;;;;;16.23;100.00;102499.88;5060713;28;20045;-34
2021/08/23 05:29:49;;;;;;;8.65;3.38;;;;;;;16.25;100.00;102506.03;5065537;28;20049;-32
2021/08/23 05:32:17;;;;;;;7.15;3.22;;;;;;;16.29;100.00;102509.13;5061217;28;20127;-37
2021/08/23 05:34:47;;;;;;;8.80;3.88;;;;;;;16.31;100.00;102509.66;5058483;28;20033;-39
2021/08/23 05:37:15;;;;;;;7.90;3.00;;;;;;;16.31;100.00;102509.66;5063656;28;20413;-35
2021/08/23 05:39:43;;;;;;;11.65;3.47;;;;;;;16.33;100.00;102519.50;5065749;28;20051;-36
2021/08/23 05:42:11;;;;;;;6.50;2.70;;;;;;;16.36;100.00;102518.06;5058586;28;20052;-34
2021/08/23 05:44:39;;;;;;;8.25;3.25;;;;;;;16.37;100.00;102514.94;5065070;28;20048;-36
2021/08/23 05:47:07;;;;;;;10.77;3.50;;;;;;;16.40;100.00;102522.78;5057117;28;20044;-37
2021/08/23 05:49:35;;;;;;;6.50;2.40;;;;;;;16.43;100.00;102519.38;5062222;28;20564;-37
2021/08/23 05:52:04;;;;;;;10.93;3.58;;;;;;;16.47;100.00;102525.25;5067275;28;20054;-39
2021/08/23 05:54:32;;;;;;;10.98;3.40;;;;;;;16.49;100.00;102520.16;5062511;28;20565;-32
2021/08/23 05:57:00;;;;;;;10.13;3.70;;;;;;;16.53;100.00;102524.91;5056185;28;20089;-32
2021/08/23 05:59:28;;;;;;;9.98;2.95;;;;;;;16.58;100.00;102526.00;5060676;28;20068;-34
2021/08/23 06:01:57;;;;;;;10.60;3.13;;;;;;;16.61;100.00;102526.22;5064871;28;20101;-35
2021/08/23 06:04:25;;;;;;;6.80;2.58;;;;;;;16.64;100.00;102530.44;5063168;28;20071;-36
2021/08/23 06:06:53;;;;;;;6.13;2.58;;;;;;;16.67;100.00;102525.06;5065052;28;20053;-36
2021/08/23 06:09:23;;;;;;;7.25;3.25;;;;;;;16.71;100.00;102528.97;5060805;28;20501;-36
2021/08/23 06:11:51;;;;;;;7.15;2.92;;;;;;;16.75;100.00;102532.88;5060095;28;20517;-35
2021/08/23 06:14:19;;;;;;;8.75;3.28;;;;;;;16.79;100.00;102533.06;5064837;28;20075;-33
2021/08/23 06:16:46;;;;;;;8.40;3.00;;;;;;;16.84;100.00;102533.03;5060765;28;20052;-40
2021/08/23 06:19:14;;;;;;;9.60;3.40;;;;;;;16.87;100.00;102536.09;5057887;28;20799;-32
2021/08/23 06:21:42;;;;;;;9.25;3.25;;;;;;;16.92;100.00;102534.34;5064357;28;20072;-33
2021/08/23 06:24:10;;;;;;;6.68;2.72;;;;;;;16.96;100.00;102536.28;5063466;28;20067;-31
2021/08/23 06:26:39;;;;;;;6.97;2.70;;;;;;;17.01;100.00;102540.97;5057870;28;20045;-39
2021/08/23 06:29:08;;;;;;;7.32;3.10;;;;;;;17.06;100.00;102538.09;5062874;28;20037;-34
2021/08/23 06:31:38;;;;;;;8.80;3.05;;;;;;;17.11;100.00;102535.22;5065685;28;20139;-36
2021/08/23 06:34:07;;;;;;;10.20;3.00;;;;;;;17.17;100.00;102539.66;5059547;28;20067;-35
2021/08/23 06:36:35;;;;;;;8.90;2.70;;;;;;;17.20;100.00;102534.22;5058383;28;20076;-33
2021/08/23 06:39:04;;;;;;;7.20;2.65;;;;;;;17.27;100.00;102539.50;5065419;28;20045;-35
2021/08/23 06:41:31;;;;;;;7.65;2.50;;;;;;;17.34;100.00;102530.69;5063601;28;20060;-37
2021/08/23 06:44:01;;;;;;;6.43;2.97;;;;;;;17.46;100.00;102537.53;5053456;28;20057;-32
2021/08/23 06:46:29;;;;;;;6.72;2.47;;;;;;;17.62;100.00;102545.75;5052439;28;20462;-35
2021/08/23 06:48:57;;;;;;;7.10;2.95;;;;;;;17.84;100.00;102548.84;5066834;28;20044;-39
2021/08/23 06:51:24;;;;;;;7.28;2.30;;;;;;;18.15;100.00;102547.19;5061730;28;20080;-35
2021/08/23 06:53:52;;;;;;;9.93;2.70;;;;;;;18.50;100.00;102554.16;5055641;28;20087;-34
2021/08/23 06:56:21;;;;;;;7.38;2.03;;;;;;;18.85;100.00;102558.31;5062919;28;20069;-34
2021/08/23 06:58:48;;;;;;;7.70;2.40;;;;;;;19.23;100.00;102558.91;5063460;28;20041;-34
2021/08/23 07:01:18;;;;;;;7.25;2.00;;;;;;;19.60;98.39;102560.63;5057850;28;20442;-33
2021/08/23 07:03:48;;;;;;;6.00;2.03;;;;;;;20.10;97.41;102568.22;5057773;28;20041;-35
2021/08/23 07:06:16;;;;;;;6.30;2.20;;;;;;;20.57;94.85;102567.56;5062112;28;20375;-38
2021/08/23 07:08:45;;;;;;;4.60;2.00;;;;;;;21.01;92.05;102562.03;5040136;28;20053;-32
2021/08/23 07:11:13;;;;;;;5.68;2.20;;;;;;;21.54;90.61;102568.41;5040545;28;20076;-36
2021/08/23 07:13:42;;;;;;;8.73;2.58;;;;;;;21.97;85.97;102574.09;5060654;28;20060;-33
2021/08/23 07:16:09;;;;;;;4.82;2.05;;;;;;;22.32;84.10;102574.06;5061000;28;20476;-34
2021/08/23 07:18:39;;;;;;;5.80;2.00;;;;;;;22.70;82.04;102568.44;5053023;28;20049;-34
2021/08/23 07:21:07;;;;;;;5.38;1.90;;;;;;;23.10;80.17;102574.66;5061534;28;20057;-40
2021/08/23 07:23:35;;;;;;;4.85;1.90;;;;;;;23.48;77.92;102580.28;5055764;28;20166;-32
2021/08/23 07:26:03;;;;;;;5.05;2.00;;;;;;;23.85;76.22;102586.25;5059777;28;20049;-33
2021/08/23 07:28:30;;;;;;;6.97;2.10;;;;;;;24.18;74.55;102586.28;5063497;28;20139;-37
2021/08/23 07:30:59;;;;;;;6.05;1.90;;;;;;;24.36;72.04;102576.41;5057739;28;20142;-33
2021/08/23 07:33:27;;;;;;;5.03;2.10;;;;;;;24.31;71.22;102577.44;5056426;28;20052;-34
2021/08/23 07:35:56;;;;;;;5.72;2.00;;;;;;;24.38;70.09;102579.72;5064160;28;20228;-35
2021/08/23 07:38:24;;;;;;;6.38;1.80;;;;;;;24.45;69.75;102582.00;5062172;28;20051;-35
2021/08/23 07:40:51;;;;;;;5.20;1.90;;;;;;;24.53;68.17;102587.63;5054791;28;20036;-36
2021/08/23 07:43:19;;;;;;;4.80;1.52;;;;;;;24.46;68.40;102583.66;5059282;28;20060;-34
2021/08/23 07:45:47;;;;;;;5.13;1.42;;;;;;;24.61;68.14;102585.84;5052105;28;20072;-39
2021/08/23 07:48:16;;;;;;;6.25;2.20;;;;;;;24.86;66.57;102587.56;5070302;28;20093;-37
2021/08/23 07:50:44;;;;;;;4.35;1.50;;;;;;;24.90;64.84;102585.66;5053716;28;20039;-39
2021/08/23 07:53:14;;;;;;;4.60;1.50;;;;;;;24.84;65.39;102586.25;5061440;28;20067;-35
2021/08/23 07:55:41;;;;;;;4.07;1.50;;;;;;;24.83;64.80;102584.56;5064563;28;20052;-33
2021/08/23 07:58:10;;;;;;;4.18;1.30;;;;;;;24.79;63.80;102578.72;5062731;28;20040;-36
2021/08/23 08:00:38;;;;;;;3.42;1.25;;;;;;;24.80;63.59;102583.25;5060994;28;20057;-35
2021/08/23 08:03:07;;;;;;;3.97;1.30;;;;;;;24.93;62.58;102587.81;5066266;28;20044;-33
2021/08/23 08:05:37;;;;;;;3.63;1.05;;;;;;;25.09;62.49;102592.84;5064553;28;20155;-34
2021/08/23 08:08:07;;;;;;;4.27;1.33;;;;;;;25.47;61.40;102590.44;5061738;28;20049;-38
2021/08/23 08:10:37;;;;;;;3.72;1.30;;;;;;;25.86;59.17;102590.88;5064255;28;20402;-37
2021/08/23 08:13:06;;;;;;;4.57;1.30;;;;;;;26.19;57.58;102582.03;5065205;28;20135;-34
2021/08/23 08:15:35;;;;;;;3.45;1.20;;;;;;;26.41;57.07;102587.22;5062052;28;20063;-38
2021/08/23 08:18:04;;;;;;;2.78;1.17;;;;;;;26.78;56.70;102599.28;5061234;28;20052;-34
2021/08/23 08:20:32;;;;;;;5.63;1.35;;;;;;;27.10;55.40;102585.81;5050706;28;20052;-38
2021/08/23 08:23:00;;;;;;;4.18;1.40;;;;;;;27.33;53.83;102604.03;5063346;28;20090;-34
2021/08/23 08:25:30;;;;;;;4.05;1.40;;;;;;;27.48;52.03;102598.63;5065227;28;20075;-32
2021/08/23 08:27:59;;;;;;;3.85;1.40;;;;;;;27.59;51.03;102599.72;5062192;28;20413;-33
2021/08/23 08:30:27;;;;;;;3.78;1.10;;;;;;;27.70;49.12;102601.66;5059988;28;20421;-34
2021/08/23 08:32:55;;;;;;;4.32;0.90;;;;;;;27.73;49.05;102600.06;5066434;28;20084;-31
2021/08/23 08:35:24;;;;;;;4.00;1.30;;;;;;;27.95;48.38;102601.38;5064487;28;20513;-36
2021/08/23 08:37:53;;;;;;;2.70;1.10;;;;;;;27.94;47.89;102605.47;5047221;28;20558;-38
2021/08/23 08:40:21;;;;;;;2.47;1.00;;;;;;;27.91;48.22;102603.34;5061421;28;20416;-34
2021/08/23 08:42:49;;;;;;;3.70;0.90;;;;;;;28.08;48.44;102611.50;5068864;28;20075;-36
2021/08/23 08:45:19;;;;;;;2.80;1.05;;;;;;;28.32;47.17;102621.88;5064761;28;20102;-34
2021/08/23 08:47:47;;;;;;;2.88;1.00;;;;;;;28.35;47.29;102621.13;5065167;28;20075;-32
2021/08/23 08:50:17;;;;;;;3.67;1.10;;;;;;;28.31;46.95;102626.81;5052651;28;20151;-34
2021/08/23 08:52:46;;;;;;;3.83;1.13;;;;;;;28.34;47.00;102625.22;5066871;28;20128;-35
2021/08/23 08:55:14;;;;;;;4.05;1.20;;;;;;;28.42;47.15;102619.22;5062275;28;20041;-34
2021/08/23 08:57:43;;;;;;;2.10;0.90;;;;;;;28.66;46.39;102628.72;5060326;28;20059;-36
2021/08/23 09:00:11;;;;;;;3.38;1.02;;;;;;;28.76;45.42;102628.94;5064369;28;20049;-33
2021/08/23 09:02:40;;;;;;;3.40;1.10;;;;;;;28.95;45.21;102635.88;5065923;28;20044;-38
2021/08/23 09:05:15;;;;;;;4.85;1.52;;;;;;;29.09;42.21;102633.25;5060220;28;20072;-35
2021/08/23 09:07:49;;;;;;;2.28;0.82;;;;;;;29.11;44.13;102633.69;5060819;28;20160;-36
2021/08/23 09:10:22;;;;;;;4.28;1.35;;;;;;;29.12;43.95;102636.19;5061239;28;20131;-34
2021/08/23 09:13:00;;;;;;;3.63;1.20;;;;;;;29.16;42.53;102638.31;5061950;28;20072;-40
2021/08/23 09:15:28;;;;;;;4.07;1.02;;;;;;;29.05;44.22;102630.31;5058075;28;20413;-36
2021/08/23 09:18:08;;;;;;;3.25;0.90;;;;;;;29.01;42.96;102631.44;5062735;28;20037;-34
2021/08/23 09:20:38;;;;;;;3.55;0.90;;;;;;;29.09;43.83;102625.44;5065526;28;20386;-36
2021/08/23 09:23:14;;;;;;;3.05;1.00;;;;;;;28.98;43.64;102621.53;5063548;28;20123;-38
2021/08/23 09:25:45;;;;;;;2.58;1.00;;;;;;;29.02;44.05;102630.22;5060324;28;20512;-36
2021/08/23 09:28:13;;;;;;;2.85;1.00;;;;;;;29.13;44.07;102632.09;5062608;28;20067;-39
2021/08/23 09:30:41;;;;;;;2.30;1.00;;;;;;;29.18;43.59;102635.88;5065616;28;20044;-35
2021/08/23 09:33:10;;;;;;;2.85;1.00;;;;;;;29.20;43.15;102636.28;5061243;28;20377;-36
2021/08/23 09:35:39;;;;;;;2.90;1.00;;;;;;;29.00;43.04;102635.53;5060277;28;20051;-44
2021/08/23 09:38:11;;;;;;;2.42;1.08;;;;;;;29.00;43.01;102636.38;5059434;28;20041;-35
2021/08/23 09:40:39;;;;;;;3.63;1.10;;;;;;;29.04;42.16;102628.63;5062087;28;20149;-38
2021/08/23 09:43:13;;;;;;;3.35;1.00;;;;;;;29.01;42.30;102632.28;5065841;28;20063;-35
2021/08/23 09:45:44;;;;;;;2.75;1.20;;;;;;;29.06;42.29;102640.59;5058004;28;20121;-33
2021/08/23 09:48:13;;;;;;;2.67;1.00;;;;;;;29.06;42.14;102631.97;5066420;28;20452;-37
2021/08/23 09:50:44;;;;;;;3.15;1.00;;;;;;;28.93;42.16;102629.69;5060432;28;20052;-34
2021/08/23 09:53:13;;;;;;;3.53;1.13;;;;;;;28.96;42.07;102638.38;5058761;28;20033;-37
2021/08/23 09:55:42;;;;;;;3.22;1.20;;;;;;;29.08;42.71;102645.97;5065999;28;20730;-36
2021/08/23 09:58:10;;;;;;;3.55;1.17;;;;;;;29.40;42.34;102638.72;5065477;28;20080;-36
2021/08/23 10:00:40;;;;;;;2.72;1.10;;;;;;;29.59;41.31;102646.44;5046833;28;20048;-34
2021/08/23 10:03:14;;;;;;;2.97;1.20;;;;;;;29.44;41.67;102644.53;5060857;28;20037;-37
2021/08/23 10:05:47;;;;;;;3.45;1.10;;;;;;;29.50;42.07;102643.00;5067082;28;20049;-38
2021/08/23 10:08:17;;;;;;;3.97;1.17;;;;;;;29.45;41.30;102638.41;5063926;28;20770;-40
2021/08/23 10:10:45;;;;;;;4.32;1.20;;;;;;;29.42;42.04;102632.59;5056424;28;20081;-34
2021/08/23 10:13:14;;;;;;;2.63;1.02;;;;;;;29.46;41.62;102630.63;5062163;28;20564;-33
2021/08/23 10:15:42;;;;;;;4.32;1.20;;;;;;;29.39;41.27;102631.31;5067343;28;20037;-40
2021/08/23 10:18:10;;;;;;;2.50;1.00;;;;;;;29.32;41.62;102641.84;5049376;28;20485;-37
2021/08/23 10:20:39;;;;;;;2.03;1.00;;;;;;;29.28;41.91;102630.28;5057722;28;20048;-36
2021/08/23 10:23:10;;;;;;;3.97;1.20;;;;;;;29.39;42.64;102642.81;5063387;28;20043;-38
2021/08/23 10:25:38;;;;;;;3.15;1.13;;;;;;;29.27;42.23;102651.63;5064480;28;20078;-38
2021/08/23 10:28:07;;;;;;;3.40;1.40;;;;;;;29.15;41.79;102640.34;5060912;28;20114;-39
2021/08/23 10:30:36;;;;;;;2.30;1.20;;;;;;;29.16;42.33;102644.06;5059276;28;20056;-39
2021/08/23 10:33:13;;;;;;;4.13;1.30;;;;;;;29.13;41.59;102643.59;5058582;28;20040;-34
2021/08/23 10:35:49;;;;;;;4.95;1.30;;;;;;;29.03;41.24;102647.09;5059956;28;20051;-37
2021/08/23 10:38:20;;;;;;;4.32;1.30;;;;;;;28.95;41.67;102642.47;5059560;28;20048;-35
2021/08/23 10:40:49;;;;;;;3.22;1.20;;;;;;;28.87;41.77;102645.56;5059579;28;20140;-36
2021/08/23 10:43:20;;;;;;;3.40;1.38;;;;;;;28.89;41.40;102646.03;5064357;28;20132;-34
2021/08/23 10:45:49;;;;;;;3.28;1.25;;;;;;;28.83;42.35;102648.38;5056155;28;20102;-37
2021/08/23 10:48:19;;;;;;;2.47;1.10;;;;;;;28.75;42.50;102646.56;5064304;28;20045;-45
2021/08/23 10:50:58;;;;;;;3.72;1.05;;;;;;;28.65;42.21;102653.75;5060346;28;20063;-37
2021/08/23 10:53:35;;;;;;;3.55;1.75;;;;;;;28.63;41.58;102650.41;5058309;28;20045;-34
2021/08/23 10:56:13;;;;;;;3.03;1.10;;;;;;;28.67;41.44;102659.13;5062381;28;20152;-39
2021/08/23 10:58:41;;;;;;;4.28;1.30;;;;;;;28.64;41.93;102659.88;5064170;28;20062;-43
2021/08/23 11:01:18;;;;;;;4.28;1.35;;;;;;;28.56;40.39;102652.34;5059634;28;20500;-33
2021/08/23 11:03:46;;;;;;;4.65;1.27;;;;;;;28.47;41.60;102655.44;5058718;28;20045;-35
2021/08/23 11:06:14;;;;;;;4.68;1.20;;;;;;;28.39;41.51;102648.69;5063236;28;20053;-36
2021/08/23 11:08:43;;;;;;;2.92;1.13;;;;;;;28.30;40.79;102650.97;5062752;28;20052;-36
2021/08/23 11:11:11;;;;;;;3.88;1.17;;;;;;;28.31;41.37;102651.81;5057549;28;20061;-34
2021/08/23 11:13:40;;;;;;;2.70;0.90;;;;;;;28.34;41.06;102651.91;5061174;28;20057;-35
2021/08/23 11:16:09;;;;;;;4.13;1.20;;;;;;;28.36;40.91;102651.53;5064435;28;20045;-33
2021/08/23 11:18:41;;;;;;;3.45;1.02;;;;;;;28.28;40.56;102656.28;5059837;28;20060;-39
2021/08/23 11:21:16;;;;;;;2.92;1.02;;;;;;;28.31;40.81;102651.81;5056907;28;20052;-37
2021/08/23 11:23:46;;;;;;;3.50;1.30;;;;;;;28.30;39.40;102659.59;5063248;28;20049;-38
2021/08/23 11:26:21;;;;;;;2.78;1.30;;;;;;;28.28;38.59;102662.00;5064740;28;20036;-38
2021/08/23 11:28:49;;;;;;;3.03;1.20;;;;;;;28.31;38.04;102666.16;5057488;28;20123;-39
2021/08/23 11:31:20;;;;;;;3.20;1.48;;;;;;;28.30;37.95;102659.59;5057284;28;20049;-40